createdAt,value
2019-02-04T00:02:33.289Z,3.16
2019-02-04T00:05:37.023Z,3.06
2019-02-04T00:08:40.562Z,2.95
2019-02-04T00:11:44.413Z,2.86
2019-02-04T00:14:48.071Z,2.81
2019-02-04T00:17:51.776Z,2.74
2019-02-04T00:20:55.509Z,2.65
2019-02-04T00:23:59.260Z,2.59
2019-02-04T00:27:02.823Z,2.57
2019-02-04T00:30:07.129Z,2.59
2019-02-04T00:33:10.754Z,2.63
2019-02-04T00:36:14.342Z,2.62
2019-02-04T00:39:17.878Z,2.52
2019-02-04T00:42:21.571Z,2.30
2019-02-04T00:45:25.237Z,2.13
2019-02-04T00:48:29.051Z,2.12
2019-02-04T00:51:32.886Z,2.14
2019-02-04T00:54:36.667Z,2.15
2019-02-04T00:57:40.447Z,2.13
2019-02-04T01:00:44.190Z,2.04
2019-02-04T01:03:47.936Z,1.81
2019-02-04T01:06:51.668Z,1.65
2019-02-04T01:09:55.306Z,1.58
2019-02-04T01:12:59.125Z,1.64
2019-02-04T01:16:02.829Z,1.62
2019-02-04T01:19:06.571Z,1.54
2019-02-04T01:22:10.274Z,1.41
2019-02-04T01:25:14.031Z,1.36
2019-02-04T01:28:17.656Z,1.28
2019-02-04T01:31:21.298Z,1.10
2019-02-04T01:34:25.051Z,1.08
2019-02-04T01:37:28.668Z,1.09
2019-02-04T01:40:32.258Z,1.10
2019-02-04T01:43:36.026Z,1.18
2019-02-04T01:46:39.655Z,1.13
2019-02-04T01:49:43.333Z,0.94
2019-02-04T01:52:47.102Z,0.82
2019-02-04T01:55:50.744Z,0.80
2019-02-04T01:58:54.628Z,0.90
2019-02-04T02:01:58.296Z,1.00
2019-02-04T02:05:01.993Z,1.02
2019-02-04T02:08:05.745Z,0.81
2019-02-04T02:11:09.373Z,0.70
2019-02-04T02:14:13.127Z,0.75
2019-02-04T02:17:25.968Z,0.68
2019-02-04T02:20:22.224Z,0.63
2019-02-04T02:23:25.794Z,0.68
2019-02-04T02:26:29.425Z,0.74
2019-02-04T02:29:33.053Z,0.79
2019-02-04T02:32:36.543Z,0.68
2019-02-04T02:35:40.210Z,0.51
2019-02-04T02:38:43.808Z,0.36
2019-02-04T02:41:47.558Z,0.31
2019-02-04T02:44:51.107Z,0.31
2019-02-04T02:47:54.766Z,0.25
2019-02-04T02:50:58.436Z,0.22
2019-02-04T02:54:02.138Z,0.34
2019-02-04T02:57:05.728Z,0.27
2019-02-04T03:00:11.988Z,0.38
2019-02-04T03:03:15.670Z,0.48
2019-02-04T03:06:19.281Z,0.51
2019-02-04T03:09:22.860Z,0.44
2019-02-04T03:12:26.397Z,0.28
2019-02-04T03:15:29.950Z,0.16
2019-02-04T03:18:33.594Z,0.08
2019-02-04T03:21:37.265Z,0.04
2019-02-04T03:24:40.918Z,-0.05
2019-02-04T03:27:44.536Z,0.00
2019-02-04T03:30:48.339Z,0.07
2019-02-04T03:33:51.978Z,0.13
2019-02-04T03:36:55.659Z,0.16
2019-02-04T03:39:59.293Z,0.19
2019-02-04T03:43:02.942Z,0.19
2019-02-04T03:46:06.605Z,0.10
2019-02-04T03:49:10.269Z,-0.03
2019-02-04T03:52:13.895Z,-0.17
2019-02-04T03:55:17.549Z,-0.23
2019-02-04T03:58:21.222Z,-0.18
2019-02-04T04:01:25.008Z,-0.05
2019-02-04T04:04:28.508Z,-0.11
2019-02-04T04:07:32.113Z,-0.34
2019-02-04T04:10:35.836Z,-0.40
2019-02-04T04:13:39.534Z,-0.35
2019-02-04T04:16:43.194Z,-0.34
2019-02-04T04:19:46.808Z,-0.28
2019-02-04T04:22:50.447Z,-0.17
2019-02-04T04:25:54.106Z,-0.13
2019-02-04T04:28:57.822Z,-0.31
2019-02-04T04:32:01.538Z,-0.36
2019-02-04T04:35:06.101Z,-0.32
2019-02-04T04:38:09.712Z,-0.22
2019-02-04T04:41:13.361Z,-0.18
2019-02-04T04:44:16.942Z,-0.18
2019-02-04T04:47:20.592Z,-0.16
2019-02-04T04:50:24.299Z,-0.17
2019-02-04T04:53:27.900Z,-0.11
2019-02-04T04:56:31.454Z,-0.05
2019-02-04T04:59:35.023Z,-0.11
2019-02-04T05:02:38.543Z,-0.07
2019-02-04T05:05:42.152Z,-0.03
2019-02-04T05:08:45.822Z,-0.03
2019-02-04T05:11:49.428Z,-0.18
2019-02-04T05:14:53.083Z,-0.17
2019-02-04T05:17:56.744Z,-0.14
2019-02-04T05:21:00.571Z,-0.25
2019-02-04T05:24:04.188Z,-0.45
2019-02-04T05:27:07.722Z,-0.55
2019-02-04T05:30:13.461Z,-0.58
2019-02-04T05:33:17.079Z,-0.55
2019-02-04T05:36:20.716Z,-0.49
2019-02-04T05:39:24.393Z,-0.40
2019-02-04T05:42:27.953Z,-0.35
2019-02-04T05:45:31.526Z,-0.33
2019-02-04T05:48:35.105Z,-0.29
2019-02-04T05:51:40.716Z,-0.29
2019-02-04T05:54:44.261Z,-0.25
2019-02-04T05:57:47.826Z,-0.24
2019-02-04T06:00:51.477Z,-0.36
2019-02-04T06:03:55.063Z,-0.39
2019-02-04T06:06:58.720Z,-0.36
2019-02-04T06:10:02.262Z,-0.36
2019-02-04T06:13:05.907Z,-0.24
2019-02-04T06:16:09.635Z,-0.25
2019-02-04T06:19:13.458Z,-0.29
2019-02-04T06:22:17.137Z,-0.30
2019-02-04T06:25:20.959Z,-0.34
2019-02-04T06:28:24.588Z,-0.39
2019-02-04T06:31:28.535Z,-0.39
2019-02-04T06:34:32.270Z,-0.36
2019-02-04T06:37:36.037Z,-0.32
2019-02-04T06:40:39.805Z,-0.28
2019-02-04T06:43:43.492Z,-0.33
2019-02-04T06:46:47.126Z,-0.33
2019-02-04T06:49:50.866Z,-0.35
2019-02-04T06:52:54.629Z,-0.31
2019-02-04T06:55:58.233Z,-0.36
2019-02-04T06:59:01.950Z,-0.35
2019-02-04T07:02:05.798Z,-0.28
2019-02-04T07:05:09.571Z,-0.32
2019-02-04T07:08:13.278Z,-0.32
2019-02-04T07:11:17.035Z,-0.28
2019-02-04T07:14:20.673Z,-0.28
2019-02-04T07:17:24.440Z,-0.24
2019-02-04T07:20:28.205Z,-0.16
2019-02-04T07:23:31.822Z,-0.15
2019-02-04T07:26:35.533Z,-0.10
2019-02-04T07:29:39.090Z,-0.05
2019-02-04T07:32:42.767Z,-0.01
2019-02-04T07:35:46.427Z,0.06
2019-02-04T07:38:50.080Z,0.13
2019-02-04T07:41:53.755Z,0.22
2019-02-04T07:44:57.523Z,0.22
2019-02-04T07:48:01.284Z,0.28
2019-02-04T07:51:04.966Z,0.32
2019-02-04T07:54:08.690Z,0.39
2019-02-04T07:57:12.282Z,0.37
2019-02-04T08:00:19.382Z,0.39
2019-02-04T08:03:23.373Z,0.54
2019-02-04T08:06:27.001Z,0.62
2019-02-04T08:09:30.615Z,0.73
2019-02-04T08:12:34.318Z,0.79
2019-02-04T08:15:38.546Z,0.87
2019-02-04T08:18:42.198Z,0.90
2019-02-04T08:21:45.799Z,0.97
2019-02-04T08:24:49.458Z,1.07
2019-02-04T08:27:53.203Z,1.30
2019-02-04T08:30:58.025Z,1.32
2019-02-04T08:37:32.974Z,1.57
2019-02-04T08:40:37.716Z,1.59
2019-02-04T08:43:41.368Z,1.67
2019-02-04T08:46:45.402Z,1.79
2019-02-04T08:53:21.298Z,1.95
2019-02-04T08:56:25.111Z,2.08
2019-02-04T08:59:29.899Z,2.15
2019-02-04T09:02:33.850Z,2.19
2019-02-04T09:05:37.430Z,2.23
2019-02-04T09:08:41.076Z,2.24
2019-02-04T09:11:44.837Z,2.23
2019-02-04T09:14:48.452Z,2.28
2019-02-04T09:17:52.057Z,2.45
2019-02-04T09:20:55.634Z,2.53
2019-02-04T09:23:59.280Z,2.54
2019-02-04T09:27:02.990Z,2.67
2019-02-04T09:30:08.931Z,2.79
2019-02-04T09:33:12.546Z,2.81
2019-02-04T09:36:16.195Z,2.87
2019-02-04T09:39:19.756Z,2.93
2019-02-04T09:42:23.363Z,2.95
2019-02-04T09:45:27.837Z,3.01
2019-02-04T09:48:30.601Z,3.08
2019-02-04T09:51:34.151Z,3.27
2019-02-04T09:54:37.704Z,3.42
2019-02-04T09:57:41.286Z,3.44
2019-02-04T10:00:44.945Z,3.48
2019-02-04T10:03:48.379Z,3.56
2019-02-04T10:06:51.530Z,3.73
2019-02-04T10:09:54.721Z,3.86
2019-02-04T10:12:57.857Z,3.93
2019-02-04T10:16:01.021Z,4.00
2019-02-04T10:19:04.103Z,3.97
2019-02-04T10:22:07.421Z,4.13
2019-02-04T10:25:11.398Z,4.34
2019-02-04T10:28:14.852Z,4.39
2019-02-04T10:31:18.033Z,4.46
2019-02-04T10:34:21.124Z,4.69
2019-02-04T10:37:24.192Z,4.78
2019-02-04T10:40:27.647Z,4.92
2019-02-04T10:43:30.768Z,5.04
2019-02-04T10:46:33.901Z,5.11
2019-02-04T10:49:36.964Z,5.18
2019-02-04T10:52:40.200Z,5.29
2019-02-04T10:55:43.235Z,5.32
2019-02-04T10:58:46.337Z,5.53
2019-02-04T11:01:49.432Z,5.46
2019-02-04T11:04:52.579Z,5.40
2019-02-04T11:07:55.749Z,5.33
2019-02-04T11:10:58.946Z,5.48
2019-02-04T11:14:02.033Z,5.53
2019-02-04T11:17:05.256Z,5.54
2019-02-04T11:20:12.771Z,5.67
2019-02-04T11:23:15.747Z,5.93
2019-02-04T11:26:18.869Z,6.08
2019-02-04T11:29:22.010Z,6.29
2019-02-04T11:32:25.064Z,6.37
2019-02-04T11:35:28.220Z,6.61
2019-02-04T11:38:31.356Z,6.55
2019-02-04T11:41:34.429Z,6.74
2019-02-04T11:44:37.533Z,6.64
2019-02-04T11:47:40.625Z,6.67
2019-02-04T11:50:43.726Z,6.68
2019-02-04T11:53:46.811Z,6.84
2019-02-04T11:56:50.471Z,7.01
2019-02-04T11:59:53.595Z,6.97
2019-02-04T12:02:57.292Z,7.00
2019-02-04T12:06:00.402Z,7.24
2019-02-04T12:09:03.635Z,7.16
2019-02-04T12:12:06.786Z,7.19
2019-02-04T12:15:11.905Z,7.22
2019-02-04T12:18:15.022Z,7.26
2019-02-04T12:21:21.692Z,7.20
2019-02-04T12:24:21.204Z,7.19
2019-02-04T12:27:31.840Z,7.11
2019-02-04T12:30:31.087Z,7.11
2019-02-04T12:33:32.526Z,7.02
2019-02-04T12:36:35.640Z,6.96
2019-02-04T12:39:38.832Z,7.22
2019-02-04T12:42:42.028Z,7.13
2019-02-04T12:45:45.209Z,7.45
2019-02-04T12:48:48.303Z,7.51
2019-02-04T12:51:52.039Z,7.72
2019-02-04T12:54:55.111Z,7.67
2019-02-04T12:57:58.288Z,7.68
2019-02-04T13:01:01.369Z,7.55
2019-02-04T13:04:04.681Z,7.77
2019-02-04T13:07:07.845Z,8.00
2019-02-04T13:10:11.524Z,8.10
2019-02-04T13:13:16.737Z,8.00
2019-02-04T13:16:19.911Z,7.93
2019-02-04T13:19:23.029Z,8.00
2019-02-04T13:22:26.231Z,8.13
2019-02-04T13:25:29.450Z,8.32
2019-02-04T13:28:32.599Z,8.25
2019-02-04T13:31:36.382Z,8.46
2019-02-04T13:34:39.499Z,8.25
2019-02-04T13:37:42.568Z,8.36
2019-02-04T13:40:45.669Z,8.47
2019-02-04T13:43:48.729Z,8.64
2019-02-04T13:46:51.849Z,8.63
2019-02-04T13:49:54.948Z,8.37
2019-02-04T13:52:58.004Z,8.07
2019-02-04T13:56:01.303Z,8.09
2019-02-04T13:59:04.382Z,8.07
2019-02-04T14:02:07.526Z,7.99
2019-02-04T14:05:10.643Z,7.71
2019-02-04T14:08:13.779Z,7.89
2019-02-04T14:11:17.180Z,8.06
2019-02-04T14:14:20.299Z,8.08
2019-02-04T14:17:24.439Z,8.22
2019-02-04T14:20:26.596Z,8.22
2019-02-04T14:23:29.809Z,8.15
2019-02-04T14:26:32.984Z,8.09
2019-02-04T14:29:36.076Z,7.90
2019-02-04T14:32:39.172Z,7.62
2019-02-04T14:35:42.520Z,7.73
2019-02-04T14:38:45.719Z,7.78
2019-02-04T14:41:48.840Z,7.74
2019-02-04T14:45:02.137Z,7.58
2019-02-04T14:48:16.080Z,7.49
2019-02-04T14:51:30.153Z,7.52
2019-02-04T14:54:50.311Z,7.32
2019-02-04T14:58:02.108Z,7.15
2019-02-04T15:03:20.036Z,7.05
2019-02-04T15:08:40.020Z,6.94
2019-02-04T15:11:57.891Z,6.87
2019-02-04T15:15:15.010Z,6.86
2019-02-04T15:18:29.867Z,6.65
2019-02-04T15:21:43.828Z,6.54
2019-02-04T15:25:02.974Z,6.48
2019-02-04T15:28:17.987Z,6.39
2019-02-04T15:31:33.300Z,6.31
2019-02-04T15:35:04.783Z,6.34
2019-02-04T15:38:14.451Z,6.16
2019-02-04T15:41:26.863Z,6.09
2019-02-04T15:44:53.451Z,6.06
2019-02-04T15:48:03.174Z,5.93
2019-02-04T15:51:10.975Z,5.88
2019-02-04T15:54:14.076Z,5.74
2019-02-04T15:57:17.200Z,5.68
2019-02-04T16:00:20.414Z,5.69
2019-02-04T16:03:24.469Z,5.65
2019-02-04T16:06:27.700Z,5.62
2019-02-04T16:09:30.926Z,5.50
2019-02-04T16:12:34.024Z,5.43
2019-02-04T16:15:37.107Z,5.39
2019-02-04T16:18:40.285Z,5.39
2019-02-04T16:21:43.400Z,5.28
2019-02-04T16:24:46.566Z,5.26
2019-02-04T16:27:49.661Z,5.25
2019-02-04T16:30:52.733Z,5.22
2019-02-04T16:33:55.851Z,5.14
2019-02-04T16:36:58.932Z,5.15
2019-02-04T16:40:02.048Z,5.03
2019-02-04T16:43:05.246Z,4.89
2019-02-04T16:46:08.424Z,4.85
2019-02-04T16:49:11.515Z,4.76
2019-02-04T16:52:14.605Z,4.69
2019-02-04T16:55:17.687Z,4.72
2019-02-04T16:58:20.796Z,4.69
2019-02-04T17:01:23.991Z,4.60
2019-02-04T17:04:27.078Z,4.62
2019-02-04T17:07:30.184Z,4.68
2019-02-04T17:10:33.344Z,4.75
2019-02-04T17:13:36.480Z,4.86
2019-02-04T17:16:39.667Z,4.78
2019-02-04T17:19:42.742Z,4.73
2019-02-04T17:22:45.857Z,4.77
2019-02-04T17:25:49.054Z,4.76
2019-02-04T17:28:52.265Z,4.73
2019-02-04T17:31:55.431Z,4.71
2019-02-04T17:34:58.536Z,4.71
2019-02-04T17:38:04.110Z,4.79
2019-02-04T17:41:04.872Z,4.87
2019-02-04T17:44:07.963Z,4.98
2019-02-04T17:47:11.043Z,4.98
2019-02-04T17:50:15.492Z,4.95
2019-02-04T17:53:18.624Z,4.97
2019-02-04T17:56:21.834Z,4.96
2019-02-04T17:59:24.905Z,5.04
2019-02-04T18:02:27.989Z,5.04
2019-02-04T18:05:31.170Z,5.06
2019-02-04T18:08:34.263Z,5.00
2019-02-04T18:11:37.348Z,4.98
2019-02-04T18:14:42.122Z,4.85
2019-02-04T18:17:43.861Z,4.70
2019-02-04T18:20:47.044Z,4.77
2019-02-04T18:23:50.239Z,4.74
2019-02-04T18:26:53.346Z,4.65
2019-02-04T18:29:56.538Z,4.64
2019-02-04T18:32:59.733Z,4.46
2019-02-04T18:36:02.936Z,4.39
2019-02-04T18:39:08.350Z,4.38
2019-02-04T18:42:11.473Z,4.49
2019-02-04T18:45:17.997Z,4.53
2019-02-04T18:48:21.067Z,4.54
2019-02-04T18:51:24.188Z,4.57
2019-02-04T18:54:27.308Z,4.57
2019-02-04T18:57:30.523Z,4.58
2019-02-04T19:00:33.876Z,4.53
2019-02-04T19:03:36.818Z,4.48
2019-02-04T19:06:47.463Z,4.45
2019-02-04T19:09:43.156Z,4.46
2019-02-04T19:12:46.268Z,4.42
2019-02-04T19:15:49.476Z,4.34
2019-02-04T19:18:52.572Z,4.36
2019-02-04T19:21:55.780Z,4.34
2019-02-04T19:24:58.951Z,4.28
2019-02-04T19:28:02.198Z,4.21
2019-02-04T19:31:10.742Z,4.20
2019-02-04T19:34:13.834Z,4.20
2019-02-04T19:37:16.932Z,4.18
2019-02-04T19:40:20.048Z,4.20
2019-02-04T19:43:23.208Z,4.06
2019-02-04T19:46:26.299Z,3.98
2019-02-04T19:49:29.377Z,3.95
2019-02-04T19:52:32.493Z,3.90
2019-02-04T19:55:35.587Z,3.90
2019-02-04T19:58:38.708Z,3.83
2019-02-04T20:01:41.879Z,3.86
2019-02-04T20:04:44.969Z,3.89
2019-02-04T20:07:48.045Z,3.90
2019-02-04T20:10:51.141Z,3.92
2019-02-04T20:13:54.269Z,3.91
2019-02-04T20:16:57.428Z,3.91
2019-02-04T20:20:00.543Z,3.92
2019-02-04T20:23:03.635Z,3.90
2019-02-04T20:26:06.734Z,3.88
2019-02-04T20:29:09.942Z,3.79
2019-02-04T20:32:13.104Z,3.70
2019-02-04T20:35:16.195Z,3.69
2019-02-04T20:38:19.400Z,3.69
2019-02-04T20:41:22.577Z,3.62
2019-02-04T20:44:25.704Z,3.59
2019-02-04T20:47:28.796Z,3.56
2019-02-04T20:50:34.470Z,3.59
2019-02-04T20:53:37.609Z,3.60
2019-02-04T20:56:40.712Z,3.65
2019-02-04T20:59:43.803Z,3.58
2019-02-04T21:02:47.000Z,3.60
2019-02-04T21:05:50.120Z,3.52
2019-02-04T21:08:53.287Z,3.50
2019-02-04T21:11:56.439Z,3.45
2019-02-04T21:14:59.575Z,3.42
2019-02-04T21:18:02.803Z,3.37
2019-02-04T21:21:05.957Z,3.33
2019-02-04T21:24:09.114Z,3.29
2019-02-04T21:27:12.248Z,3.28
2019-02-04T21:30:19.898Z,3.28
2019-02-04T21:33:23.194Z,3.26
2019-02-04T21:36:26.463Z,3.21
2019-02-04T21:39:30.623Z,3.17
2019-02-04T21:42:33.786Z,3.19
2019-02-04T21:45:36.957Z,3.17
2019-02-04T21:48:40.115Z,3.19
2019-02-04T21:51:43.199Z,3.20
2019-02-04T21:54:46.271Z,3.21
2019-02-04T21:57:49.402Z,3.18
2019-02-04T22:00:52.491Z,3.17
2019-02-04T22:03:55.583Z,3.09
2019-02-04T22:06:59.143Z,3.03
2019-02-04T22:10:02.218Z,3.03
2019-02-04T22:13:05.366Z,3.03
2019-02-04T22:16:08.472Z,3.00
2019-02-04T22:19:11.531Z,3.04
2019-02-04T22:22:14.644Z,3.06
2019-02-04T22:25:20.298Z,3.05
2019-02-04T22:28:22.787Z,3.05
2019-02-04T22:31:25.880Z,3.04
2019-02-04T22:34:28.939Z,3.04
2019-02-04T22:37:32.059Z,3.04
2019-02-04T22:40:35.135Z,3.05
2019-02-04T22:43:38.248Z,3.05
2019-02-04T22:46:41.315Z,3.07
2019-02-04T22:49:44.417Z,3.04
2019-02-04T22:52:47.504Z,3.03
2019-02-04T22:55:50.572Z,3.00
2019-02-04T22:58:53.698Z,2.95
2019-02-04T23:01:57.891Z,2.97
2019-02-04T23:05:01.013Z,2.98
2019-02-04T23:08:04.086Z,2.99
2019-02-04T23:11:07.196Z,2.95
2019-02-04T23:14:10.305Z,2.95
2019-02-04T23:17:13.478Z,2.99
2019-02-04T23:20:16.573Z,2.86
2019-02-04T23:23:19.663Z,2.87
2019-02-04T23:26:22.763Z,2.73
2019-02-04T23:29:25.949Z,2.67
2019-02-04T23:32:29.031Z,2.62
2019-02-04T23:35:32.147Z,2.61
2019-02-04T23:38:35.321Z,2.62
2019-02-04T23:41:38.419Z,2.63
2019-02-04T23:44:41.510Z,2.66
2019-02-04T23:47:44.602Z,2.69
2019-02-04T23:50:47.707Z,2.68
2019-02-04T23:53:50.880Z,2.73
2019-02-04T23:56:53.956Z,2.70
2019-02-04T23:59:57.084Z,2.73
